sensor_id;sensor_type;location;lat;lon;timestamp;temperature;humidity
6018;DHT22;3037;51.068;13.780;2022-08-19T00:00:06;21.90;1.00
6018;DHT22;3037;51.068;13.780;2022-08-19T00:02:33;21.90;1.00
6018;DHT22;3037;51.068;13.780;2022-08-19T00:04:59;21.90;1.00
6018;DHT22;3037;51.068;13.780;2022-08-19T00:07:24;21.90;1.00
6018;DHT22;3037;51.068;13.780;2022-08-19T00:09:50;21.90;1.00
6018;DHT22;3037;51.068;13.780;2022-08-19T00:12:15;21.90;1.00
6018;DHT22;3037;51.068;13.780;2022-08-19T00:14:41;21.90;99.90
6018;DHT22;3037;51.068;13.780;2022-08-19T00:17:07;21.90;99.90
6018;DHT22;3037;51.068;13.780;2022-08-19T00:19:33;21.90;99.90
6018;DHT22;3037;51.068;13.780;2022-08-19T00:21:59;21.90;99.90
6018;DHT22;3037;51.068;13.780;2022-08-19T00:24:25;21.90;99.90
6018;DHT22;3037;51.068;13.780;2022-08-19T00:26:52;21.90;99.90
6018;DHT22;3037;51.068;13.780;2022-08-19T00:29:20;21.90;99.90
6018;DHT22;3037;51.068;13.780;2022-08-19T00:31:46;21.90;99.90
6018;DHT22;3037;51.068;13.780;2022-08-19T00:34:13;21.90;99.90
6018;DHT22;3037;51.068;13.780;2022-08-19T00:36:42;22.00;99.90
6018;DHT22;3037;51.068;13.780;2022-08-19T00:39:08;22.00;99.90
6018;DHT22;3037;51.068;13.780;2022-08-19T00:41:34;22.00;99.90
6018;DHT22;3037;51.068;13.780;2022-08-19T00:44:02;22.00;99.90
6018;DHT22;3037;51.068;13.780;2022-08-19T00:46:29;22.00;99.90
6018;DHT22;3037;51.068;13.780;2022-08-19T00:48:56;22.00;99.90
6018;DHT22;3037;51.068;13.780;2022-08-19T00:51:24;22.10;99.90
6018;DHT22;3037;51.068;13.780;2022-08-19T00:53:52;22.10;99.90
6018;DHT22;3037;51.068;13.780;2022-08-19T00:56:19;22.00;99.90
6018;DHT22;3037;51.068;13.780;2022-08-19T00:58:44;21.90;99.90
6018;DHT22;3037;51.068;13.780;2022-08-19T01:01:10;21.90;99.90
6018;DHT22;3037;51.068;13.780;2022-08-19T01:03:36;21.90;99.90
6018;DHT22;3037;51.068;13.780;2022-08-19T01:06:01;21.80;99.90
6018;DHT22;3037;51.068;13.780;2022-08-19T01:08:28;21.80;99.90
6018;DHT22;3037;51.068;13.780;2022-08-19T01:10:56;21.90;99.90
6018;DHT22;3037;51.068;13.780;2022-08-19T01:13:25;21.80;99.90
6018;DHT22;3037;51.068;13.780;2022-08-19T01:15:56;21.80;99.90
6018;DHT22;3037;51.068;13.780;2022-08-19T01:18:23;21.80;99.90
6018;DHT22;3037;51.068;13.780;2022-08-19T01:20:50;21.80;99.90
6018;DHT22;3037;51.068;13.780;2022-08-19T01:23:16;21.80;99.90
6018;DHT22;3037;51.068;13.780;2022-08-19T01:25:46;21.80;99.90
6018;DHT22;3037;51.068;13.780;2022-08-19T01:28:27;21.80;99.90
6018;DHT22;3037;51.068;13.780;2022-08-19T01:30:53;21.80;99.90
6018;DHT22;3037;51.068;13.780;2022-08-19T01:33:19;21.80;99.90
6018;DHT22;3037;51.068;13.780;2022-08-19T01:35:45;21.70;99.90
6018;DHT22;3037;51.068;13.780;2022-08-19T01:38:22;21.70;99.90
6018;DHT22;3037;51.068;13.780;2022-08-19T01:40:49;21.70;99.90
6018;DHT22;3037;51.068;13.780;2022-08-19T01:43:15;21.70;99.90
6018;DHT22;3037;51.068;13.780;2022-08-19T01:45:40;21.70;99.90
6018;DHT22;3037;51.068;13.780;2022-08-19T01:48:09;21.70;99.90
6018;DHT22;3037;51.068;13.780;2022-08-19T01:50:35;21.70;99.90
6018;DHT22;3037;51.068;13.780;2022-08-19T01:53:03;21.70;99.90
6018;DHT22;3037;51.068;13.780;2022-08-19T01:55:30;21.60;99.90
6018;DHT22;3037;51.068;13.780;2022-08-19T01:57:58;21.60;99.90
6018;DHT22;3037;51.068;13.780;2022-08-19T02:00:28;21.70;99.90
6018;DHT22;3037;51.068;13.780;2022-08-19T02:02:54;21.70;99.90
6018;DHT22;3037;51.068;13.780;2022-08-19T02:05:20;21.70;99.90
6018;DHT22;3037;51.068;13.780;2022-08-19T02:07:47;21.70;99.90
6018;DHT22;3037;51.068;13.780;2022-08-19T02:10:16;21.70;99.90
6018;DHT22;3037;51.068;13.780;2022-08-19T02:12:43;21.70;99.90
6018;DHT22;3037;51.068;13.780;2022-08-19T02:15:09;21.70;99.90
6018;DHT22;3037;51.068;13.780;2022-08-19T02:17:35;21.60;99.90
6018;DHT22;3037;51.068;13.780;2022-08-19T02:20:01;21.70;99.90
6018;DHT22;3037;51.068;13.780;2022-08-19T02:22:26;21.70;99.90
6018;DHT22;3037;51.068;13.780;2022-08-19T02:24:53;21.60;99.90
6018;DHT22;3037;51.068;13.780;2022-08-19T02:27:19;21.70;99.90
6018;DHT22;3037;51.068;13.780;2022-08-19T02:29:49;21.80;99.90
6018;DHT22;3037;51.068;13.780;2022-08-19T02:32:15;21.80;99.90
6018;DHT22;3037;51.068;13.780;2022-08-19T02:34:41;21.80;99.90
6018;DHT22;3037;51.068;13.780;2022-08-19T02:37:07;21.80;99.90
6018;DHT22;3037;51.068;13.780;2022-08-19T02:39:52;21.80;99.90
6018;DHT22;3037;51.068;13.780;2022-08-19T02:42:18;21.80;99.90
6018;DHT22;3037;51.068;13.780;2022-08-19T02:44:43;21.80;99.90
6018;DHT22;3037;51.068;13.780;2022-08-19T02:47:10;21.80;99.90
6018;DHT22;3037;51.068;13.780;2022-08-19T02:49:35;21.80;99.90
6018;DHT22;3037;51.068;13.780;2022-08-19T02:52:02;21.70;99.90
6018;DHT22;3037;51.068;13.780;2022-08-19T02:54:28;21.70;99.90
6018;DHT22;3037;51.068;13.780;2022-08-19T02:56:53;21.70;99.90
6018;DHT22;3037;51.068;13.780;2022-08-19T02:59:19;21.80;99.90
6018;DHT22;3037;51.068;13.780;2022-08-19T03:01:45;21.70;99.90
6018;DHT22;3037;51.068;13.780;2022-08-19T03:04:13;21.80;99.90
6018;DHT22;3037;51.068;13.780;2022-08-19T03:06:41;21.70;99.90
6018;DHT22;3037;51.068;13.780;2022-08-19T03:09:08;21.70;99.90
6018;DHT22;3037;51.068;13.780;2022-08-19T03:11:34;21.80;99.90
6018;DHT22;3037;51.068;13.780;2022-08-19T03:14:00;21.80;99.90
6018;DHT22;3037;51.068;13.780;2022-08-19T03:16:28;21.80;99.90
6018;DHT22;3037;51.068;13.780;2022-08-19T03:18:56;21.80;99.90
6018;DHT22;3037;51.068;13.780;2022-08-19T03:21:26;21.70;99.90
6018;DHT22;3037;51.068;13.780;2022-08-19T03:23:56;21.70;99.90
6018;DHT22;3037;51.068;13.780;2022-08-19T03:26:22;21.70;99.90
6018;DHT22;3037;51.068;13.780;2022-08-19T03:28:47;21.70;99.90
6018;DHT22;3037;51.068;13.780;2022-08-19T03:31:17;21.60;99.90
6018;DHT22;3037;51.068;13.780;2022-08-19T03:33:43;21.60;99.90
6018;DHT22;3037;51.068;13.780;2022-08-19T03:36:15;21.70;99.90
6018;DHT22;3037;51.068;13.780;2022-08-19T03:38:46;21.80;99.90
6018;DHT22;3037;51.068;13.780;2022-08-19T03:41:16;21.70;99.90
6018;DHT22;3037;51.068;13.780;2022-08-19T03:43:42;21.80;99.90
6018;DHT22;3037;51.068;13.780;2022-08-19T03:46:10;21.80;99.90
6018;DHT22;3037;51.068;13.780;2022-08-19T03:48:38;21.70;99.90
6018;DHT22;3037;51.068;13.780;2022-08-19T03:51:05;21.80;99.90
6018;DHT22;3037;51.068;13.780;2022-08-19T03:53:32;21.70;99.90
6018;DHT22;3037;51.068;13.780;2022-08-19T03:55:58;21.80;99.90
6018;DHT22;3037;51.068;13.780;2022-08-19T03:58:28;21.80;99.90
6018;DHT22;3037;51.068;13.780;2022-08-19T04:00:55;21.80;99.90
6018;DHT22;3037;51.068;13.780;2022-08-19T04:03:22;21.90;99.90
6018;DHT22;3037;51.068;13.780;2022-08-19T04:05:47;21.80;99.90
6018;DHT22;3037;51.068;13.780;2022-08-19T04:08:13;21.80;99.90
6018;DHT22;3037;51.068;13.780;2022-08-19T04:10:44;21.80;99.90
6018;DHT22;3037;51.068;13.780;2022-08-19T04:13:09;21.80;99.90
6018;DHT22;3037;51.068;13.780;2022-08-19T04:15:39;21.70;99.90
6018;DHT22;3037;51.068;13.780;2022-08-19T04:18:07;21.80;99.90
6018;DHT22;3037;51.068;13.780;2022-08-19T04:20:44;21.70;99.90
6018;DHT22;3037;51.068;13.780;2022-08-19T04:23:11;21.70;99.90
6018;DHT22;3037;51.068;13.780;2022-08-19T04:25:39;21.70;99.90
6018;DHT22;3037;51.068;13.780;2022-08-19T04:28:06;21.70;99.90
6018;DHT22;3037;51.068;13.780;2022-08-19T04:30:38;21.70;99.90
6018;DHT22;3037;51.068;13.780;2022-08-19T04:33:04;21.70;99.90
6018;DHT22;3037;51.068;13.780;2022-08-19T04:35:35;21.80;99.90
6018;DHT22;3037;51.068;13.780;2022-08-19T04:38:01;21.80;99.90
6018;DHT22;3037;51.068;13.780;2022-08-19T04:40:26;21.80;99.90
6018;DHT22;3037;51.068;13.780;2022-08-19T04:43:11;21.70;99.90
6018;DHT22;3037;51.068;13.780;2022-08-19T04:45:42;21.70;99.90
6018;DHT22;3037;51.068;13.780;2022-08-19T04:48:08;21.60;99.90
6018;DHT22;3037;51.068;13.780;2022-08-19T04:50:34;21.70;99.90
6018;DHT22;3037;51.068;13.780;2022-08-19T04:52:59;21.70;99.90
6018;DHT22;3037;51.068;13.780;2022-08-19T04:55:25;21.70;99.90
6018;DHT22;3037;51.068;13.780;2022-08-19T04:57:51;21.60;99.90
6018;DHT22;3037;51.068;13.780;2022-08-19T05:00:16;21.70;99.90
6018;DHT22;3037;51.068;13.780;2022-08-19T05:02:42;21.70;99.90
6018;DHT22;3037;51.068;13.780;2022-08-19T05:05:08;21.70;99.90
6018;DHT22;3037;51.068;13.780;2022-08-19T05:07:34;21.80;99.90
6018;DHT22;3037;51.068;13.780;2022-08-19T05:10:00;21.70;99.90
6018;DHT22;3037;51.068;13.780;2022-08-19T05:12:26;21.70;99.90
6018;DHT22;3037;51.068;13.780;2022-08-19T05:14:53;21.80;99.90
6018;DHT22;3037;51.068;13.780;2022-08-19T05:17:19;21.80;99.90
6018;DHT22;3037;51.068;13.780;2022-08-19T05:19:45;21.80;99.90
6018;DHT22;3037;51.068;13.780;2022-08-19T05:22:29;21.80;99.90
6018;DHT22;3037;51.068;13.780;2022-08-19T05:24:58;21.70;99.90
6018;DHT22;3037;51.068;13.780;2022-08-19T05:27:23;21.70;99.90
6018;DHT22;3037;51.068;13.780;2022-08-19T05:29:49;21.70;99.90
6018;DHT22;3037;51.068;13.780;2022-08-19T05:32:14;21.70;99.90
6018;DHT22;3037;51.068;13.780;2022-08-19T05:34:40;21.70;99.90
6018;DHT22;3037;51.068;13.780;2022-08-19T05:37:06;21.70;99.90
6018;DHT22;3037;51.068;13.780;2022-08-19T05:39:34;21.70;99.90
6018;DHT22;3037;51.068;13.780;2022-08-19T05:42:03;21.70;99.90
6018;DHT22;3037;51.068;13.780;2022-08-19T05:44:31;21.70;99.90
6018;DHT22;3037;51.068;13.780;2022-08-19T05:46:58;21.60;99.90
6018;DHT22;3037;51.068;13.780;2022-08-19T05:49:24;21.60;99.90
6018;DHT22;3037;51.068;13.780;2022-08-19T05:51:51;21.70;99.90
6018;DHT22;3037;51.068;13.780;2022-08-19T05:54:17;21.60;99.90
6018;DHT22;3037;51.068;13.780;2022-08-19T05:56:43;21.60;99.90
6018;DHT22;3037;51.068;13.780;2022-08-19T05:59:10;21.70;99.90
6018;DHT22;3037;51.068;13.780;2022-08-19T06:01:41;21.70;99.90
6018;DHT22;3037;51.068;13.780;2022-08-19T06:04:07;21.70;99.90
6018;DHT22;3037;51.068;13.780;2022-08-19T06:06:33;21.70;99.90
6018;DHT22;3037;51.068;13.780;2022-08-19T06:09:00;21.70;99.90
6018;DHT22;3037;51.068;13.780;2022-08-19T06:11:35;21.60;99.90
6018;DHT22;3037;51.068;13.780;2022-08-19T06:14:14;21.60;99.90
6018;DHT22;3037;51.068;13.780;2022-08-19T06:16:41;21.60;99.90
6018;DHT22;3037;51.068;13.780;2022-08-19T06:19:10;21.50;99.90
6018;DHT22;3037;51.068;13.780;2022-08-19T06:21:38;21.60;99.90
6018;DHT22;3037;51.068;13.780;2022-08-19T06:24:07;21.50;99.90
6018;DHT22;3037;51.068;13.780;2022-08-19T06:26:35;21.50;99.90
6018;DHT22;3037;51.068;13.780;2022-08-19T06:29:01;21.50;99.90
6018;DHT22;3037;51.068;13.780;2022-08-19T06:31:28;21.50;99.90
6018;DHT22;3037;51.068;13.780;2022-08-19T06:33:53;21.50;99.90
6018;DHT22;3037;51.068;13.780;2022-08-19T06:36:21;21.50;99.90
6018;DHT22;3037;51.068;13.780;2022-08-19T06:38:50;21.60;99.90
6018;DHT22;3037;51.068;13.780;2022-08-19T06:41:16;21.70;99.90
6018;DHT22;3037;51.068;13.780;2022-08-19T06:43:41;21.70;99.90
6018;DHT22;3037;51.068;13.780;2022-08-19T06:46:13;21.70;99.90
6018;DHT22;3037;51.068;13.780;2022-08-19T06:48:39;21.70;99.90
6018;DHT22;3037;51.068;13.780;2022-08-19T06:51:04;21.70;99.90
6018;DHT22;3037;51.068;13.780;2022-08-19T06:53:31;21.70;99.90
6018;DHT22;3037;51.068;13.780;2022-08-19T06:55:57;21.70;99.90
6018;DHT22;3037;51.068;13.780;2022-08-19T06:58:26;21.70;99.90
6018;DHT22;3037;51.068;13.780;2022-08-19T07:00:51;21.60;99.90
6018;DHT22;3037;51.068;13.780;2022-08-19T07:03:17;21.50;99.90
6018;DHT22;3037;51.068;13.780;2022-08-19T07:05:43;21.50;99.90
6018;DHT22;3037;51.068;13.780;2022-08-19T07:08:09;21.50;99.90
6018;DHT22;3037;51.068;13.780;2022-08-19T07:10:34;21.50;99.90
6018;DHT22;3037;51.068;13.780;2022-08-19T07:13:02;21.50;99.90
6018;DHT22;3037;51.068;13.780;2022-08-19T07:15:28;21.60;99.90
6018;DHT22;3037;51.068;13.780;2022-08-19T07:17:54;21.60;99.90
6018;DHT22;3037;51.068;13.780;2022-08-19T07:20:19;21.60;99.90
6018;DHT22;3037;51.068;13.780;2022-08-19T07:22:45;21.60;99.90
6018;DHT22;3037;51.068;13.780;2022-08-19T07:25:11;21.60;99.90
6018;DHT22;3037;51.068;13.780;2022-08-19T07:27:38;21.60;99.90
6018;DHT22;3037;51.068;13.780;2022-08-19T07:30:04;21.60;99.90
6018;DHT22;3037;51.068;13.780;2022-08-19T07:32:30;21.50;99.90
6018;DHT22;3037;51.068;13.780;2022-08-19T07:34:56;21.50;99.90
6018;DHT22;3037;51.068;13.780;2022-08-19T07:37:22;21.50;99.90
6018;DHT22;3037;51.068;13.780;2022-08-19T07:39:48;21.40;99.90
6018;DHT22;3037;51.068;13.780;2022-08-19T07:42:14;21.40;99.90
6018;DHT22;3037;51.068;13.780;2022-08-19T07:44:40;21.40;99.90
6018;DHT22;3037;51.068;13.780;2022-08-19T07:47:06;21.40;99.90
6018;DHT22;3037;51.068;13.780;2022-08-19T07:49:32;21.40;99.90
6018;DHT22;3037;51.068;13.780;2022-08-19T07:52:01;21.40;99.90
6018;DHT22;3037;51.068;13.780;2022-08-19T07:54:30;21.30;99.90
6018;DHT22;3037;51.068;13.780;2022-08-19T07:56:56;21.30;99.90
6018;DHT22;3037;51.068;13.780;2022-08-19T07:59:23;21.40;99.90
6018;DHT22;3037;51.068;13.780;2022-08-19T08:01:50;21.50;99.90
6018;DHT22;3037;51.068;13.780;2022-08-19T08:04:17;21.50;99.90
6018;DHT22;3037;51.068;13.780;2022-08-19T08:07:02;21.50;99.90
6018;DHT22;3037;51.068;13.780;2022-08-19T08:09:46;21.40;99.90
6018;DHT22;3037;51.068;13.780;2022-08-19T08:12:14;21.30;99.90
6018;DHT22;3037;51.068;13.780;2022-08-19T08:14:46;21.40;99.90
6018;DHT22;3037;51.068;13.780;2022-08-19T08:17:13;21.40;99.90
6018;DHT22;3037;51.068;13.780;2022-08-19T08:19:40;21.40;99.90
6018;DHT22;3037;51.068;13.780;2022-08-19T08:22:07;21.40;99.90
6018;DHT22;3037;51.068;13.780;2022-08-19T08:24:33;21.40;99.90
6018;DHT22;3037;51.068;13.780;2022-08-19T08:27:01;21.30;99.90
6018;DHT22;3037;51.068;13.780;2022-08-19T08:29:29;21.30;99.90
6018;DHT22;3037;51.068;13.780;2022-08-19T08:31:54;21.30;99.90
6018;DHT22;3037;51.068;13.780;2022-08-19T08:34:20;21.40;99.90
6018;DHT22;3037;51.068;13.780;2022-08-19T08:36:47;21.40;99.90
6018;DHT22;3037;51.068;13.780;2022-08-19T08:39:17;21.50;99.90
6018;DHT22;3037;51.068;13.780;2022-08-19T08:44:17;21.60;99.90
6018;DHT22;3037;51.068;13.780;2022-08-19T08:46:51;21.70;99.90
6018;DHT22;3037;51.068;13.780;2022-08-19T08:49:45;21.80;99.90
6018;DHT22;3037;51.068;13.780;2022-08-19T08:52:26;21.60;99.90
6018;DHT22;3037;51.068;13.780;2022-08-19T08:54:57;21.70;99.90
6018;DHT22;3037;51.068;13.780;2022-08-19T08:57:30;21.80;99.90
6018;DHT22;3037;51.068;13.780;2022-08-19T08:59:57;22.00;99.90
6018;DHT22;3037;51.068;13.780;2022-08-19T09:02:25;22.10;99.90
6018;DHT22;3037;51.068;13.780;2022-08-19T09:04:51;22.20;99.90
6018;DHT22;3037;51.068;13.780;2022-08-19T09:09:50;22.30;99.90
6018;DHT22;3037;51.068;13.780;2022-08-19T09:12:38;22.60;99.90
6018;DHT22;3037;51.068;13.780;2022-08-19T09:15:12;22.70;99.90
6018;DHT22;3037;51.068;13.780;2022-08-19T09:17:38;22.90;99.90
6018;DHT22;3037;51.068;13.780;2022-08-19T09:20:18;22.90;99.90
6018;DHT22;3037;51.068;13.780;2022-08-19T09:22:44;22.80;99.90
6018;DHT22;3037;51.068;13.780;2022-08-19T09:25:11;23.00;99.90
6018;DHT22;3037;51.068;13.780;2022-08-19T09:27:39;23.20;99.90
6018;DHT22;3037;51.068;13.780;2022-08-19T09:30:06;23.40;99.90
6018;DHT22;3037;51.068;13.780;2022-08-19T09:32:33;23.50;99.90
6018;DHT22;3037;51.068;13.780;2022-08-19T09:34:59;23.30;99.90
6018;DHT22;3037;51.068;13.780;2022-08-19T09:37:26;23.20;99.90
6018;DHT22;3037;51.068;13.780;2022-08-19T09:39:52;23.30;99.90
6018;DHT22;3037;51.068;13.780;2022-08-19T09:42:18;23.40;99.90
6018;DHT22;3037;51.068;13.780;2022-08-19T09:44:44;23.40;99.90
6018;DHT22;3037;51.068;13.780;2022-08-19T09:47:11;23.50;99.90
6018;DHT22;3037;51.068;13.780;2022-08-19T09:49:38;23.40;99.90
6018;DHT22;3037;51.068;13.780;2022-08-19T09:52:05;23.30;99.90
6018;DHT22;3037;51.068;13.780;2022-08-19T09:54:31;23.40;99.90
6018;DHT22;3037;51.068;13.780;2022-08-19T09:56:58;23.90;99.90
6018;DHT22;3037;51.068;13.780;2022-08-19T09:59:26;23.50;99.90
6018;DHT22;3037;51.068;13.780;2022-08-19T10:01:52;23.70;99.90
6018;DHT22;3037;51.068;13.780;2022-08-19T10:04:17;23.90;99.90
6018;DHT22;3037;51.068;13.780;2022-08-19T10:06:43;23.80;99.90
6018;DHT22;3037;51.068;13.780;2022-08-19T10:09:10;24.00;99.90
6018;DHT22;3037;51.068;13.780;2022-08-19T10:11:39;23.70;99.90
6018;DHT22;3037;51.068;13.780;2022-08-19T10:14:05;23.80;99.90
6018;DHT22;3037;51.068;13.780;2022-08-19T10:16:32;23.80;99.90
6018;DHT22;3037;51.068;13.780;2022-08-19T10:18:58;23.90;99.90
6018;DHT22;3037;51.068;13.780;2022-08-19T10:21:27;24.10;99.90
6018;DHT22;3037;51.068;13.780;2022-08-19T10:23:55;24.30;99.90
6018;DHT22;3037;51.068;13.780;2022-08-19T10:26:29;24.50;99.90
6018;DHT22;3037;51.068;13.780;2022-08-19T10:28:57;24.60;99.90
6018;DHT22;3037;51.068;13.780;2022-08-19T10:31:30;24.70;99.90
6018;DHT22;3037;51.068;13.780;2022-08-19T10:33:56;25.40;99.90
6018;DHT22;3037;51.068;13.780;2022-08-19T10:36:31;25.70;99.90
6018;DHT22;3037;51.068;13.780;2022-08-19T10:38:58;26.20;99.90
6018;DHT22;3037;51.068;13.780;2022-08-19T10:41:34;26.10;99.90
6018;DHT22;3037;51.068;13.780;2022-08-19T10:44:10;25.50;99.90
6018;DHT22;3037;51.068;13.780;2022-08-19T10:46:41;25.90;99.90
6018;DHT22;3037;51.068;13.780;2022-08-19T10:49:07;27.50;99.90
6018;DHT22;3037;51.068;13.780;2022-08-19T10:51:33;28.20;99.90
6018;DHT22;3037;51.068;13.780;2022-08-19T10:54:18;28.90;99.90
6018;DHT22;3037;51.068;13.780;2022-08-19T10:56:44;28.30;99.90
6018;DHT22;3037;51.068;13.780;2022-08-19T10:59:23;28.20;99.90
6018;DHT22;3037;51.068;13.780;2022-08-19T11:01:50;27.90;99.90
6018;DHT22;3037;51.068;13.780;2022-08-19T11:04:18;27.60;99.90
6018;DHT22;3037;51.068;13.780;2022-08-19T11:06:48;27.30;99.90
6018;DHT22;3037;51.068;13.780;2022-08-19T11:09:16;27.70;99.90
6018;DHT22;3037;51.068;13.780;2022-08-19T11:11:42;28.30;99.90
6018;DHT22;3037;51.068;13.780;2022-08-19T11:14:10;27.90;99.90
6018;DHT22;3037;51.068;13.780;2022-08-19T11:16:37;27.80;99.90
6018;DHT22;3037;51.068;13.780;2022-08-19T11:19:05;27.60;99.90
6018;DHT22;3037;51.068;13.780;2022-08-19T11:21:36;26.80;99.90
6018;DHT22;3037;51.068;13.780;2022-08-19T11:24:04;26.90;99.90
6018;DHT22;3037;51.068;13.780;2022-08-19T11:26:32;26.40;99.90
6018;DHT22;3037;51.068;13.780;2022-08-19T11:28:59;26.40;99.90
6018;DHT22;3037;51.068;13.780;2022-08-19T11:31:31;26.00;99.90
6018;DHT22;3037;51.068;13.780;2022-08-19T11:33:58;25.80;1.00
6018;DHT22;3037;51.068;13.780;2022-08-19T11:36:25;25.60;1.00
6018;DHT22;3037;51.068;13.780;2022-08-19T11:38:51;25.70;1.00
6018;DHT22;3037;51.068;13.780;2022-08-19T11:41:20;25.70;1.00
6018;DHT22;3037;51.068;13.780;2022-08-19T11:43:46;26.00;99.90
6018;DHT22;3037;51.068;13.780;2022-08-19T11:46:13;26.20;99.90
6018;DHT22;3037;51.068;13.780;2022-08-19T11:48:40;26.50;99.90
6018;DHT22;3037;51.068;13.780;2022-08-19T11:51:08;26.40;99.90
6018;DHT22;3037;51.068;13.780;2022-08-19T11:53:34;26.40;99.90
6018;DHT22;3037;51.068;13.780;2022-08-19T11:56:00;26.30;99.90
6018;DHT22;3037;51.068;13.780;2022-08-19T11:58:26;26.10;99.90
6018;DHT22;3037;51.068;13.780;2022-08-19T12:00:52;25.80;99.90
6018;DHT22;3037;51.068;13.780;2022-08-19T12:03:17;25.60;99.90
6018;DHT22;3037;51.068;13.780;2022-08-19T12:05:44;25.40;99.90
6018;DHT22;3037;51.068;13.780;2022-08-19T12:08:10;25.30;99.90
6018;DHT22;3037;51.068;13.780;2022-08-19T12:10:38;25.50;99.90
6018;DHT22;3037;51.068;13.780;2022-08-19T12:13:04;25.50;99.90
6018;DHT22;3037;51.068;13.780;2022-08-19T12:15:29;25.60;99.90
6018;DHT22;3037;51.068;13.780;2022-08-19T12:17:56;25.50;99.90
6018;DHT22;3037;51.068;13.780;2022-08-19T12:20:23;25.20;99.90
6018;DHT22;3037;51.068;13.780;2022-08-19T12:22:49;25.10;99.90
6018;DHT22;3037;51.068;13.780;2022-08-19T12:25:15;24.70;1.00
6018;DHT22;3037;51.068;13.780;2022-08-19T12:27:41;24.60;1.00
6018;DHT22;3037;51.068;13.780;2022-08-19T12:30:09;24.50;1.00
6018;DHT22;3037;51.068;13.780;2022-08-19T12:32:35;24.50;99.90
6018;DHT22;3037;51.068;13.780;2022-08-19T12:35:00;24.30;1.00
6018;DHT22;3037;51.068;13.780;2022-08-19T12:37:26;24.50;99.90
6018;DHT22;3037;51.068;13.780;2022-08-19T12:39:52;24.70;99.90
6018;DHT22;3037;51.068;13.780;2022-08-19T12:42:17;24.90;99.90
6018;DHT22;3037;51.068;13.780;2022-08-19T12:44:44;24.90;99.90
6018;DHT22;3037;51.068;13.780;2022-08-19T12:47:11;24.80;99.90
6018;DHT22;3037;51.068;13.780;2022-08-19T12:49:37;24.80;99.90
6018;DHT22;3037;51.068;13.780;2022-08-19T12:52:06;24.70;99.90
6018;DHT22;3037;51.068;13.780;2022-08-19T12:54:33;24.70;99.90
6018;DHT22;3037;51.068;13.780;2022-08-19T12:56:59;24.50;99.90
6018;DHT22;3037;51.068;13.780;2022-08-19T12:59:25;24.90;99.90
6018;DHT22;3037;51.068;13.780;2022-08-19T13:01:51;25.30;99.90
6018;DHT22;3037;51.068;13.780;2022-08-19T13:04:17;25.40;99.90
6018;DHT22;3037;51.068;13.780;2022-08-19T13:06:43;25.50;99.90
6018;DHT22;3037;51.068;13.780;2022-08-19T13:09:09;25.50;99.90
6018;DHT22;3037;51.068;13.780;2022-08-19T13:11:36;25.20;99.90
6018;DHT22;3037;51.068;13.780;2022-08-19T13:14:03;25.20;99.90
6018;DHT22;3037;51.068;13.780;2022-08-19T13:16:29;25.30;99.90
6018;DHT22;3037;51.068;13.780;2022-08-19T13:18:56;25.40;99.90
6018;DHT22;3037;51.068;13.780;2022-08-19T13:21:25;25.30;99.90
6018;DHT22;3037;51.068;13.780;2022-08-19T13:23:51;25.10;99.90
6018;DHT22;3037;51.068;13.780;2022-08-19T13:26:17;25.20;99.90
6018;DHT22;3037;51.068;13.780;2022-08-19T13:28:44;25.10;99.90
6018;DHT22;3037;51.068;13.780;2022-08-19T13:31:42;24.80;99.90
6018;DHT22;3037;51.068;13.780;2022-08-19T13:34:34;24.80;99.90
6018;DHT22;3037;51.068;13.780;2022-08-19T13:39:26;24.50;99.90
6018;DHT22;3037;51.068;13.780;2022-08-19T13:41:52;24.40;99.90
6018;DHT22;3037;51.068;13.780;2022-08-19T13:44:18;24.10;99.90
6018;DHT22;3037;51.068;13.780;2022-08-19T13:46:45;23.90;99.90
6018;DHT22;3037;51.068;13.780;2022-08-19T13:49:12;24.00;99.90
6018;DHT22;3037;51.068;13.780;2022-08-19T13:51:39;24.10;99.90
6018;DHT22;3037;51.068;13.780;2022-08-19T13:54:08;24.30;99.90
6018;DHT22;3037;51.068;13.780;2022-08-19T13:56:35;24.10;99.90
6018;DHT22;3037;51.068;13.780;2022-08-19T13:59:04;23.90;99.90
6018;DHT22;3037;51.068;13.780;2022-08-19T14:01:29;23.70;99.90
6018;DHT22;3037;51.068;13.780;2022-08-19T14:03:55;23.70;99.90
6018;DHT22;3037;51.068;13.780;2022-08-19T14:06:21;23.60;99.90
6018;DHT22;3037;51.068;13.780;2022-08-19T14:08:47;23.70;99.90
6018;DHT22;3037;51.068;13.780;2022-08-19T14:11:13;23.60;99.90
6018;DHT22;3037;51.068;13.780;2022-08-19T14:13:39;23.60;99.90
6018;DHT22;3037;51.068;13.780;2022-08-19T14:16:10;23.60;99.90
6018;DHT22;3037;51.068;13.780;2022-08-19T14:18:35;23.70;99.90
6018;DHT22;3037;51.068;13.780;2022-08-19T14:21:01;23.50;99.90
6018;DHT22;3037;51.068;13.780;2022-08-19T14:23:28;23.60;99.90
6018;DHT22;3037;51.068;13.780;2022-08-19T14:26:07;23.50;99.90
6018;DHT22;3037;51.068;13.780;2022-08-19T14:28:33;23.60;99.90
6018;DHT22;3037;51.068;13.780;2022-08-19T14:30:58;23.60;99.90
6018;DHT22;3037;51.068;13.780;2022-08-19T14:33:24;23.40;99.90
6018;DHT22;3037;51.068;13.780;2022-08-19T14:35:49;23.40;99.90
6018;DHT22;3037;51.068;13.780;2022-08-19T14:38:18;23.30;99.90
6018;DHT22;3037;51.068;13.780;2022-08-19T14:40:44;23.20;99.90
6018;DHT22;3037;51.068;13.780;2022-08-19T14:43:10;23.20;99.90
6018;DHT22;3037;51.068;13.780;2022-08-19T14:45:37;23.20;99.90
6018;DHT22;3037;51.068;13.780;2022-08-19T14:48:03;23.10;99.90
6018;DHT22;3037;51.068;13.780;2022-08-19T14:50:30;23.20;99.90
6018;DHT22;3037;51.068;13.780;2022-08-19T14:53:05;23.10;99.90
6018;DHT22;3037;51.068;13.780;2022-08-19T14:55:32;23.00;99.90
6018;DHT22;3037;51.068;13.780;2022-08-19T14:57:57;23.00;99.90
6018;DHT22;3037;51.068;13.780;2022-08-19T15:00:24;23.00;99.90
6018;DHT22;3037;51.068;13.780;2022-08-19T15:02:50;23.00;99.90
6018;DHT22;3037;51.068;13.780;2022-08-19T15:05:16;23.10;99.90
6018;DHT22;3037;51.068;13.780;2022-08-19T15:07:41;23.00;99.90
6018;DHT22;3037;51.068;13.780;2022-08-19T15:10:09;23.00;99.90
6018;DHT22;3037;51.068;13.780;2022-08-19T15:12:35;23.00;99.90
6018;DHT22;3037;51.068;13.780;2022-08-19T15:15:02;23.00;99.90
6018;DHT22;3037;51.068;13.780;2022-08-19T15:17:28;23.00;99.90
6018;DHT22;3037;51.068;13.780;2022-08-19T15:19:55;23.10;99.90
6018;DHT22;3037;51.068;13.780;2022-08-19T15:22:21;23.00;99.90
6018;DHT22;3037;51.068;13.780;2022-08-19T15:24:46;22.90;99.90
6018;DHT22;3037;51.068;13.780;2022-08-19T15:27:12;22.80;99.90
6018;DHT22;3037;51.068;13.780;2022-08-19T15:29:39;22.70;99.90
6018;DHT22;3037;51.068;13.780;2022-08-19T15:32:07;22.70;99.90
6018;DHT22;3037;51.068;13.780;2022-08-19T15:34:33;22.60;99.90
6018;DHT22;3037;51.068;13.780;2022-08-19T15:37:00;22.60;99.90
6018;DHT22;3037;51.068;13.780;2022-08-19T15:39:25;22.60;99.90
6018;DHT22;3037;51.068;13.780;2022-08-19T15:41:51;22.60;99.90
6018;DHT22;3037;51.068;13.780;2022-08-19T15:44:18;22.60;99.90
6018;DHT22;3037;51.068;13.780;2022-08-19T15:46:47;22.70;99.90
6018;DHT22;3037;51.068;13.780;2022-08-19T15:49:15;22.80;99.90
6018;DHT22;3037;51.068;13.780;2022-08-19T15:51:43;22.80;99.90
6018;DHT22;3037;51.068;13.780;2022-08-19T15:54:14;22.90;99.90
6018;DHT22;3037;51.068;13.780;2022-08-19T15:56:40;23.00;99.90